D/T METAR WX W/DIR W/SPE G/SPE TEMP DEWP
8/12/19 10:20 EGFF 081020Z 26022KT 9999 FEW024CB SCT030 10/05 Q1001 W (260°) 25.3mph 10°C 5°C
8/12/19 09:50 EGFF 080950Z 27018G29KT 9999 FEW026TCU SCT028 09/05 Q1002 W (270°) 20.7mph 33.4mph 9°C 5°C
8/12/19 09:20 EGFF 080920Z 27019G29KT 9999 VCSH FEW026TCU FEW032 08/05 Q1002 VCSH W (270°) 21.9mph 33.4mph 8°C 5°C
8/12/19 08:20 EGFF 080820Z 27015KT 9999 FEW027CB SCT028 SCT032 09/06 Q1001 W (270°) 17.3mph 9°C 6°C
8/12/19 07:50 EGFF 080750Z 28024G45KT 9999 -SHRA FEW015 SCT028 BKN038 09/05 Q1001 RESHRA -SHRA W (280°) 27.6mph 51.8mph 9°C 5°C
8/12/19 07:20 EGFF 080720Z AUTO 27020G32KT 9999 BKN031 10/05 Q1001 W (270°) 23.0mph 36.8mph 10°C 5°C
8/12/19 06:50 EGFF 080650Z AUTO 27020G31KT 9999 BKN031 OVC048 10/06 Q1001 W (270°) 23.0mph 35.7mph 10°C 6°C
8/12/19 06:20 EGFF 080620Z AUTO 27021G32KT 9999 BKN028 BKN036 OVC043 10/07 Q1001 W (270°) 24.2mph 36.8mph 10°C 7°C
8/12/19 05:50 EGFF 080550Z AUTO 27022G32KT 9999 SCT024 BKN030 OVC039 10/07 Q1000 W (270°) 25.3mph 36.8mph 10°C 7°C
8/12/19 05:20 EGFF 080520Z AUTO 27021G32KT 9999 FEW028 BKN034 OVC045 10/07 Q1000 W (270°) 24.2mph 36.8mph 10°C 7°C
8/12/19 04:50 EGFF 080450Z AUTO 27020G32KT 9999 BKN025 OVC035 10/08 Q1000 W (270°) 23.0mph 36.8mph 10°C 8°C
8/12/19 04:20 EGFF 080420Z AUTO 27022G34KT 9999 BKN021 OVC027 10/08 Q1000 W (270°) 25.3mph 39.1mph 10°C 8°C
8/12/19 03:50 EGFF 080350Z AUTO 27023G38KT 9999 OVC020 11/09 Q1000 W (270°) 26.5mph 43.7mph 11°C 9°C
8/12/19 03:20 EGFF 080320Z AUTO 27022G33KT 9999 BKN020 11/09 Q1000 W (270°) 25.3mph 38.0mph 11°C 9°C
8/12/19 02:50 EGFF 080250Z AUTO 26022G34KT 9999 FEW008 BKN012 BKN041 11/10 Q1000 W (260°) 25.3mph 39.1mph 11°C 10°C
8/12/19 02:20 EGFF 080220Z AUTO 25022G34KT 9999 -RA BKN003 OVC008 12/11 Q1000 RERA REDZ -RA WSW (250°) 25.3mph 39.1mph 12°C 11°C
8/12/19 01:50 EGFF 080150Z AUTO 25017KT 9999 -RA BKN009 OVC015 12/11 Q1000 -RA WSW (250°) 19.6mph 12°C 11°C
8/12/19 01:20 EGFF 080120Z AUTO 24018KT 9999 -RA BKN016/// OVC023/// //////TCU 12/11 Q1000 -RA WSW (240°) 20.7mph 12°C 11°C
8/12/19 00:50 EGFF 080050Z AUTO 24017KT 9999 -RA BKN020/// OVC025/// //////TCU 11/10 Q1001 RERA -RA WSW (240°) 19.6mph 11°C 10°C
7/12/19 23:50 EGFF 072350Z AUTO 22016G27KT 6000 -RA BKN016/// OVC025/// //////TCU 11/09 Q1002 RERA -RA SW (220°) 18.4mph 31.1mph 11°C 9°C
7/12/19 23:20 EGFF 072320Z AUTO 21014G24KT 9999 -RA OVC019/// //////TCU 11/09 Q1003 -RA SSW (210°) 16.1mph 27.6mph 11°C 9°C
7/12/19 22:50 EGFF 072250Z AUTO 20014KT 9999 -RA FEW021/// BKN029/// OVC035/// //////TCU 11/08 Q1004 -RA SSW (200°) 16.1mph 11°C 8°C
7/12/19 22:20 EGFF 072220Z AUTO 20010KT 9999 SCT020 BKN046 10/08 Q1005 SSW (200°) 11.5mph 10°C 8°C
7/12/19 21:50 EGFF 072150Z AUTO 21010KT 9999 BKN016 10/08 Q1006 SSW (210°) 11.5mph 10°C 8°C
7/12/19 21:20 EGFF 072120Z AUTO 21009KT 9999 FEW016 10/08 Q1007 SSW (210°) 10.4mph 10°C 8°C
7/12/19 20:50 EGFF 072050Z AUTO 19007KT 9999 BKN015 10/08 Q1007 S (190°) 8.1mph 10°C 8°C
7/12/19 20:20 EGFF 072020Z AUTO 22008KT 9999 BKN016 10/08 Q1008 SW (220°) 9.2mph 10°C 8°C
7/12/19 19:50 EGFF 071950Z AUTO 24009KT 9999 BKN017 OVC025 10/08 Q1009 WSW (240°) 10.4mph 10°C 8°C
7/12/19 19:20 EGFF 071920Z AUTO 24008KT 9999 SCT017 BKN021 10/08 Q1010 WSW (240°) 9.2mph 10°C 8°C
7/12/19 18:50 EGFF 071850Z AUTO 22006KT 9999 FEW017 09/08 Q1010 SW (220°) 6.9mph 9°C 8°C
7/12/19 18:20 EGFF 071820Z AUTO 21005KT 170V240 9999 BKN016 09/08 Q1010 SSW (210°) 5.8mph 9°C 8°C
7/12/19 17:50 EGFF 071750Z AUTO 23008KT 9999 BKN014 BKN019 10/08 Q1011 SW (230°) 9.2mph 10°C 8°C
7/12/19 17:20 EGFF 071720Z AUTO 25010KT 9999 BKN014 OVC019 10/08 Q1012 WSW (250°) 11.5mph 10°C 8°C
7/12/19 16:50 EGFF 071650Z AUTO 26009KT 9999 BKN012 OVC018 10/09 Q1012 W (260°) 10.4mph 10°C 9°C
7/12/19 15:50 EGFF 071550Z AUTO 26009KT 9999 OVC010 10/09 Q1012 W (260°) 10.4mph 10°C 9°C
7/12/19 15:20 EGFF 071520Z AUTO 27010KT 9999 OVC012 10/09 Q1013 W (270°) 11.5mph 10°C 9°C
7/12/19 14:50 EGFF 071450Z AUTO 27011KT 9999 OVC013 10/08 Q1013 W (270°) 12.7mph 10°C 8°C
7/12/19 14:20 EGFF 071420Z AUTO 27011KT 9999 BKN017 OVC022 10/08 Q1013 W (270°) 12.7mph 10°C 8°C
7/12/19 13:50 EGFF 071350Z 26012KT 9999 FEW016 SCT022 BKN032 10/08 Q1013 W (260°) 13.8mph 10°C 8°C
7/12/19 13:20 EGFF 071320Z 26012KT 9999 FEW016 SCT022 BKN032 10/08 Q1013 W (260°) 13.8mph 10°C 8°C
7/12/19 12:50 EGFF 071250Z 26011KT 9999 FEW016 SCT022 BKN032 10/08 Q1013 W (260°) 12.7mph 10°C 8°C
7/12/19 12:20 EGFF 071220Z 26012KT 9999 6000NW FEW016 SCT022 BKN032 10/08 Q1014 W (260°) 13.8mph 10°C 8°C
7/12/19 11:50 EGFF 071150Z 25012KT 9999 6000NW FEW016 SCT022 BKN032 10/08 Q1014 WSW (250°) 13.8mph 10°C 8°C
7/12/19 11:20 EGFF 071120Z 25009KT 9999 SCT017 BKN026 10/08 Q1014 WSW (250°) 10.4mph 10°C 8°C
7/12/19 10:50 EGFF 071050Z 24008KT 9999 SCT013 BKN018 BKN029 10/08 Q1015 WSW (240°) 9.2mph 10°C 8°C
7/12/19 10:20 EGFF 071020Z AUTO 24008KT 9999 SCT013 BKN023 OVC031 09/08 Q1015 WSW (240°) 9.2mph 9°C 8°C
7/12/19 09:50 EGFF 070950Z AUTO 23006KT 9999 BKN014 OVC027 09/08 Q1015 SW (230°) 6.9mph 9°C 8°C
7/12/19 09:20 EGFF 070920Z AUTO 23005KT 9999 BKN012 BKN026 OVC032 09/08 Q1014 SW (230°) 5.8mph 9°C 8°C